Time;durP1;ratioP1;P1;durP2;ratioP2;P2;SDS_P1;SDS_P2;PMS_P1;PMS_P2;Temp;Humidity;BMP_temperature;BMP_pressure;BME280_temperature;BME280_humidity;BME280_pressure;Samples;Min_cycle;Max_cycle;Signal;HPM_P1;HPM_P2
2021/08/29 00:00:39;;;;;;;11.13;5.90;;;;;;;;;;5085778;28;20441;-82
2021/08/29 00:03:05;;;;;;;18.75;6.47;;;;;;;;;;5086873;28;20048;-83
2021/08/29 00:05:32;;;;;;;14.57;5.95;;;;;;;;;;5098362;28;20370;-83
2021/08/29 00:07:59;;;;;;;17.17;5.82;;;;;;;;;;5098858;28;20159;-83
2021/08/29 00:10:25;;;;;;;11.85;5.60;;;;;;;;;;5098482;28;20187;-83
2021/08/29 00:12:52;;;;;;;18.77;5.88;;;;;;;;;;5097814;28;20104;-83
2021/08/29 00:15:25;;;;;;;17.40;6.82;;;;;;;;;;5103894;28;20298;-83
2021/08/29 00:17:52;;;;;;;16.75;6.85;;;;;;;;;;5112451;28;20042;-83
2021/08/29 00:20:18;;;;;;;16.77;6.07;;;;;;;;;;5108815;28;20067;-83
2021/08/29 00:22:48;;;;;;;15.50;6.32;;;;;;;;;;5098765;28;20048;-83
2021/08/29 00:25:15;;;;;;;13.05;6.45;;;;;;;;;;5097835;28;20630;-83
2021/08/29 00:27:42;;;;;;;11.38;6.75;;;;;;;;;;5107019;28;20173;-83
2021/08/29 00:30:09;;;;;;;16.48;6.35;;;;;;;;;;5111157;28;20085;-83
2021/08/29 00:32:35;;;;;;;12.35;6.50;;;;;;;;;;5099897;28;20043;-84
2021/08/29 00:35:02;;;;;;;13.70;6.07;;;;;;;;;;5096433;28;20087;-83
2021/08/29 00:37:28;;;;;;;21.77;8.02;;;;;;;;;;5097467;28;20474;-84
2021/08/29 00:39:55;;;;;;;12.70;7.25;;;;;;;;;;5107912;28;20032;-83
2021/08/29 00:42:21;;;;;;;14.43;7.30;;;;;;;;;;5112184;28;20075;-83
2021/08/29 00:44:48;;;;;;;21.88;7.78;;;;;;;;;;5103152;28;20048;-84
2021/08/29 00:47:18;;;;;;;17.50;6.90;;;;;;;;;;5099888;28;20060;-84
2021/08/29 00:49:47;;;;;;;17.67;7.22;;;;;;;;;;5098360;28;20059;-83
2021/08/29 00:52:14;;;;;;;19.20;7.30;;;;;;;;;;5096891;28;20107;-83
2021/08/29 00:54:47;;;;;;;11.30;6.43;;;;;;;;;;5096471;28;20052;-83
2021/08/29 00:57:14;;;;;;;17.63;6.55;;;;;;;;;;5098660;28;20094;-84
2021/08/29 00:59:41;;;;;;;12.98;6.18;;;;;;;;;;5104524;28;20074;-83
2021/08/29 01:02:13;;;;;;;12.32;6.57;;;;;;;;;;5110023;28;20048;-84
2021/08/29 01:04:46;;;;;;;19.45;6.50;;;;;;;;;;5103925;28;20044;-84
2021/08/29 01:07:20;;;;;;;12.77;6.57;;;;;;;;;;5099058;28;20485;-83
2021/08/29 01:09:51;;;;;;;12.95;5.90;;;;;;;;;;5095957;28;20071;-83
2021/08/29 01:12:21;;;;;;;10.48;5.72;;;;;;;;;;5109958;28;20110;-82
2021/08/29 01:14:48;;;;;;;11.18;5.55;;;;;;;;;;5078224;28;20091;-83
2021/08/29 01:17:16;;;;;;;13.02;5.60;;;;;;;;;;5076799;28;20143;-82
2021/08/29 01:19:57;;;;;;;8.82;5.30;;;;;;;;;;5076859;28;20109;-83
2021/08/29 01:22:24;;;;;;;10.07;5.72;;;;;;;;;;5076840;28;20076;-83
2021/08/29 01:24:51;;;;;;;11.15;5.47;;;;;;;;;;5077805;28;20052;-82
2021/08/29 01:27:22;;;;;;;10.13;5.28;;;;;;;;;;5092221;28;20064;-83
2021/08/29 01:29:48;;;;;;;10.27;4.82;;;;;;;;;;5090707;28;20044;-82
2021/08/29 01:32:19;;;;;;;8.95;4.50;;;;;;;;;;5084440;28;20049;-84
2021/08/29 01:34:46;;;;;;;9.15;4.45;;;;;;;;;;5077797;28;20076;-84
2021/08/29 01:37:14;;;;;;;6.50;3.83;;;;;;;;;;5077406;28;20269;-83
2021/08/29 01:39:42;;;;;;;7.38;3.50;;;;;;;;;;5113365;28;20153;-82
2021/08/29 01:42:11;;;;;;;5.13;2.97;;;;;;;;;;5079840;28;20061;-83
2021/08/29 01:44:39;;;;;;;5.25;3.08;;;;;;;;;;5078735;28;20167;-83
2021/08/29 01:47:05;;;;;;;3.97;2.70;;;;;;;;;;5078753;28;20083;-82
2021/08/29 01:49:33;;;;;;;4.75;2.85;;;;;;;;;;5079707;28;20056;-84
2021/08/29 01:52:00;;;;;;;4.30;3.00;;;;;;;;;;5077827;28;20186;-83
2021/08/29 01:54:27;;;;;;;4.97;3.15;;;;;;;;;;5079832;28;20125;-83
2021/08/29 01:57:00;;;;;;;4.35;3.05;;;;;;;;;;5079195;28;20048;-83
2021/08/29 01:59:30;;;;;;;10.60;3.38;;;;;;;;;;5111832;28;20318;-83
2021/08/29 02:01:57;;;;;;;6.80;3.83;;;;;;;;;;5079315;28;20090;-83
2021/08/29 02:04:26;;;;;;;5.72;3.63;;;;;;;;;;5078754;28;20349;-83
2021/08/29 02:07:07;;;;;;;4.85;3.22;;;;;;;;;;5079186;28;20049;-83
2021/08/29 02:09:34;;;;;;;5.47;3.58;;;;;;;;;;5078557;28;20112;-82
2021/08/29 02:12:04;;;;;;;13.38;3.83;;;;;;;;;;5114410;28;20052;-82
2021/08/29 02:14:32;;;;;;;6.22;4.03;;;;;;;;;;5083360;28;20050;-82
2021/08/29 02:16:58;;;;;;;6.40;4.97;;;;;;;;;;5116995;28;20049;-82
2021/08/29 02:19:27;;;;;;;6.47;4.03;;;;;;;;;;5090743;28;20055;-82
2021/08/29 02:21:54;;;;;;;7.95;4.85;;;;;;;;;;5092830;28;20033;-82
2021/08/29 02:24:21;;;;;;;7.97;4.28;;;;;;;;;;5083069;28;20052;-82
2021/08/29 02:26:48;;;;;;;9.43;4.65;;;;;;;;;;5082228;28;20409;-82
2021/08/29 02:29:15;;;;;;;8.77;4.45;;;;;;;;;;5080302;28;20053;-82
2021/08/29 02:31:43;;;;;;;9.38;4.25;;;;;;;;;;5112360;28;20048;-82
2021/08/29 02:34:10;;;;;;;10.50;4.85;;;;;;;;;;5080005;28;20131;-82
2021/08/29 02:36:42;;;;;;;7.88;4.40;;;;;;;;;;5080445;28;20352;-83
2021/08/29 02:39:10;;;;;;;9.57;5.43;;;;;;;;;;5079631;28;20096;-82
2021/08/29 02:41:37;;;;;;;9.55;5.28;;;;;;;;;;5079302;28;20045;-83
2021/08/29 02:44:05;;;;;;;7.10;5.25;;;;;;;;;;5078289;28;20050;-82
2021/08/29 02:46:35;;;;;;;10.50;5.70;;;;;;;;;;5079259;28;20060;-83
2021/08/29 02:49:02;;;;;;;9.80;5.75;;;;;;;;;;5077957;28;20109;-84
2021/08/29 02:51:29;;;;;;;9.07;5.38;;;;;;;;;;5079083;28;20053;-84
2021/08/29 02:53:59;;;;;;;13.68;6.03;;;;;;;;;;5078045;28;20115;-84
2021/08/29 02:56:28;;;;;;;10.80;6.20;;;;;;;;;;5078848;28;20111;-84
2021/08/29 02:58:54;;;;;;;11.02;5.90;;;;;;;;;;5081653;28;20085;-84
2021/08/29 03:01:21;;;;;;;11.23;6.32;;;;;;;;;;5080337;28;20401;-84
2021/08/29 03:03:48;;;;;;;10.50;6.88;;;;;;;;;;5082468;28;20383;-84
2021/08/29 03:06:15;;;;;;;10.27;6.57;;;;;;;;;;5095547;28;20078;-85
2021/08/29 03:08:43;;;;;;;12.57;6.68;;;;;;;;;;5095632;28;20060;-84
2021/08/29 03:11:10;;;;;;;11.98;6.85;;;;;;;;;;5091994;28;20095;-84
2021/08/29 03:13:36;;;;;;;11.45;7.30;;;;;;;;;;5079491;28;20045;-84
2021/08/29 03:16:03;;;;;;;12.55;7.60;;;;;;;;;;5079125;28;20363;-84
2021/08/29 03:18:30;;;;;;;11.90;7.50;;;;;;;;;;5079896;28;20103;-84
2021/08/29 03:20:57;;;;;;;12.52;6.68;;;;;;;;;;5077040;28;20152;-84
2021/08/29 03:23:24;;;;;;;12.52;7.00;;;;;;;;;;5077675;28;20090;-84
2021/08/29 03:25:53;;;;;;;11.77;6.82;;;;;;;;;;5078819;28;20404;-84
2021/08/29 03:28:20;;;;;;;12.07;7.65;;;;;;;;;;5091954;28;20078;-85
2021/08/29 03:30:46;;;;;;;13.95;7.93;;;;;;;;;;5098692;28;20107;-85
2021/08/29 03:33:13;;;;;;;14.73;8.43;;;;;;;;;;5107229;28;20051;-84
2021/08/29 03:35:39;;;;;;;10.43;7.43;;;;;;;;;;5115213;28;20050;-84
2021/08/29 03:38:06;;;;;;;13.80;8.20;;;;;;;;;;5109030;28;20067;-84
2021/08/29 03:40:37;;;;;;;14.07;7.05;;;;;;;;;;5108406;28;20184;-84
2021/08/29 03:43:05;;;;;;;15.20;8.23;;;;;;;;;;5111695;28;20044;-83
2021/08/29 03:45:32;;;;;;;10.50;7.40;;;;;;;;;;5112795;28;20111;-84
2021/08/29 03:48:02;;;;;;;13.05;7.93;;;;;;;;;;5112511;28;20078;-83
2021/08/29 03:50:29;;;;;;;12.50;7.55;;;;;;;;;;5110804;28;20136;-83
2021/08/29 03:52:56;;;;;;;13.50;8.32;;;;;;;;;;5111191;28;20051;-83
2021/08/29 03:55:26;;;;;;;9.15;6.53;;;;;;;;;;5114968;28;20046;-82
2021/08/29 03:57:55;;;;;;;9.10;5.72;;;;;;;;;;5099557;28;20389;-83
2021/08/29 04:00:23;;;;;;;8.02;5.70;;;;;;;;;;5100168;28;20056;-83
2021/08/29 04:02:53;;;;;;;11.07;6.03;;;;;;;;;;5097170;28;20072;-83
2021/08/29 04:05:21;;;;;;;8.85;5.47;;;;;;;;;;5097533;28;20078;-83
2021/08/29 04:07:54;;;;;;;12.73;6.07;;;;;;;;;;5096902;28;20044;-83
2021/08/29 04:10:22;;;;;;;8.15;5.18;;;;;;;;;;5098354;28;20128;-83
2021/08/29 04:12:49;;;;;;;9.35;4.88;;;;;;;;;;5098590;28;20048;-83
2021/08/29 04:15:16;;;;;;;8.95;5.03;;;;;;;;;;5098437;28;20074;-83
2021/08/29 04:17:46;;;;;;;7.63;4.50;;;;;;;;;;5097316;28;20036;-83
2021/08/29 04:20:14;;;;;;;9.85;4.97;;;;;;;;;;5098495;28;20437;-83
2021/08/29 04:22:40;;;;;;;7.20;4.78;;;;;;;;;;5099920;28;20059;-83
2021/08/29 04:25:08;;;;;;;9.23;4.47;;;;;;;;;;5098792;28;20048;-83
2021/08/29 04:27:35;;;;;;;6.50;4.38;;;;;;;;;;5109127;28;20128;-83
2021/08/29 04:30:02;;;;;;;5.90;4.40;;;;;;;;;;5108932;28;20079;-83
2021/08/29 04:32:29;;;;;;;7.15;4.18;;;;;;;;;;5104766;28;20047;-83
2021/08/29 04:34:56;;;;;;;6.95;4.43;;;;;;;;;;5099168;28;20083;-83
2021/08/29 04:37:22;;;;;;;5.00;4.28;;;;;;;;;;5100414;28;20113;-83
2021/08/29 04:40:04;;;;;;;7.72;5.20;;;;;;;;;;5112433;28;20066;-83
2021/08/29 04:42:31;;;;;;;7.95;4.07;;;;;;;;;;5112536;28;20093;-83
2021/08/29 04:44:57;;;;;;;7.25;4.45;;;;;;;;;;5106871;28;20075;-83
2021/08/29 04:47:24;;;;;;;7.40;4.53;;;;;;;;;;5100287;28;20067;-84
2021/08/29 04:49:50;;;;;;;7.70;4.10;;;;;;;;;;5100132;28;20400;-84
2021/08/29 04:52:17;;;;;;;7.70;5.22;;;;;;;;;;5097502;28;20047;-83
2021/08/29 04:54:43;;;;;;;7.28;4.18;;;;;;;;;;5097284;28;20106;-83
2021/08/29 04:57:10;;;;;;;7.25;4.63;;;;;;;;;;5097563;28;20072;-83
2021/08/29 04:59:36;;;;;;;6.30;4.40;;;;;;;;;;5111602;28;20056;-83
2021/08/29 05:02:03;;;;;;;7.03;4.57;;;;;;;;;;5110696;28;20040;-83
2021/08/29 05:04:33;;;;;;;8.23;4.72;;;;;;;;;;5098474;28;20059;-83
2021/08/29 05:06:59;;;;;;;6.80;4.35;;;;;;;;;;5097405;28;20261;-83
2021/08/29 05:09:26;;;;;;;6.30;4.13;;;;;;;;;;5097888;28;20083;-83
2021/08/29 05:11:52;;;;;;;9.15;4.72;;;;;;;;;;5096884;28;20059;-83
2021/08/29 05:14:19;;;;;;;7.05;4.72;;;;;;;;;;5100236;28;20052;-83
2021/08/29 05:16:45;;;;;;;7.53;4.38;;;;;;;;;;5082217;28;20086;-83
2021/08/29 05:19:12;;;;;;;6.65;4.80;;;;;;;;;;5078829;28;20269;-83
2021/08/29 05:21:40;;;;;;;7.82;4.75;;;;;;;;;;5078283;28;20110;-83
2021/08/29 05:24:07;;;;;;;7.45;4.25;;;;;;;;;;5079882;28;20112;-83
2021/08/29 05:26:34;;;;;;;7.03;4.80;;;;;;;;;;5092304;28;20101;-83
2021/08/29 05:29:00;;;;;;;5.95;4.78;;;;;;;;;;5101057;28;20051;-82
2021/08/29 05:31:30;;;;;;;10.15;4.85;;;;;;;;;;5098891;28;20055;-83
2021/08/29 05:33:59;;;;;;;7.18;4.70;;;;;;;;;;5097968;28;20055;-83
2021/08/29 05:36:26;;;;;;;9.63;6.40;;;;;;;;;;5098639;28;20052;-84
2021/08/29 05:38:52;;;;;;;6.53;5.18;;;;;;;;;;5099656;28;20127;-84
2021/08/29 05:41:21;;;;;;;8.93;6.10;;;;;;;;;;5099438;28;20079;-83
2021/08/29 05:43:51;;;;;;;10.15;6.72;;;;;;;;;;5099962;28;20437;-83
2021/08/29 05:46:17;;;;;;;11.63;6.43;;;;;;;;;;5098361;28;20273;-83
2021/08/29 05:48:45;;;;;;;9.73;7.47;;;;;;;;;;5099472;28;20469;-83
2021/08/29 05:51:13;;;;;;;12.02;7.35;;;;;;;;;;5098680;28;20103;-83
2021/08/29 05:53:40;;;;;;;14.10;7.97;;;;;;;;;;5101210;28;20052;-83
2021/08/29 05:56:06;;;;;;;9.25;6.38;;;;;;;;;;5100889;28;20055;-82
2021/08/29 05:58:36;;;;;;;7.57;6.38;;;;;;;;;;5101633;28;20052;-83
2021/08/29 06:01:02;;;;;;;13.10;7.13;;;;;;;;;;5098522;28;20094;-82
2021/08/29 06:03:31;;;;;;;12.15;6.93;;;;;;;;;;5099278;28;20222;-83
2021/08/29 06:05:58;;;;;;;12.18;7.60;;;;;;;;;;5098986;28;20525;-83
2021/08/29 06:08:24;;;;;;;10.63;7.15;;;;;;;;;;5077464;28;20363;-83
2021/08/29 06:10:51;;;;;;;9.10;6.22;;;;;;;;;;5095272;28;20071;-83
2021/08/29 06:13:45;;;;;;;9.57;6.05;;;;;;;;;;5090636;28;20266;-83
2021/08/29 06:16:13;;;;;;;10.32;6.82;;;;;;;;;;5111723;28;20068;-82
2021/08/29 06:18:39;;;;;;;15.27;6.60;;;;;;;;;;5092884;28;20475;-83
2021/08/29 06:21:06;;;;;;;8.30;5.90;;;;;;;;;;5106626;28;20056;-83
2021/08/29 06:23:33;;;;;;;9.27;5.95;;;;;;;;;;5092480;28;20051;-83
2021/08/29 06:26:00;;;;;;;8.55;5.55;;;;;;;;;;5101179;28;20117;-83
2021/08/29 06:28:27;;;;;;;7.05;5.38;;;;;;;;;;5099775;28;20445;-83
2021/08/29 06:30:53;;;;;;;8.35;4.68;;;;;;;;;;5099870;28;20055;-82
2021/08/29 06:33:20;;;;;;;7.18;4.95;;;;;;;;;;5100626;28;20066;-83
2021/08/29 06:35:47;;;;;;;10.25;6.05;;;;;;;;;;5098832;28;20427;-84
2021/08/29 06:38:16;;;;;;;8.45;5.45;;;;;;;;;;5098859;28;20044;-83
2021/08/29 06:40:46;;;;;;;8.35;5.15;;;;;;;;;;5098823;28;20048;-84
2021/08/29 06:43:27;;;;;;;9.68;5.45;;;;;;;;;;5100477;28;20067;-83
2021/08/29 06:45:53;;;;;;;10.52;4.50;;;;;;;;;;5099615;28;20684;-83
2021/08/29 06:48:20;;;;;;;8.00;4.93;;;;;;;;;;5100986;28;20086;-84
2021/08/29 06:50:46;;;;;;;8.98;4.72;;;;;;;;;;5107778;28;20032;-84
2021/08/29 06:53:12;;;;;;;8.50;4.43;;;;;;;;;;5114931;28;20055;-83
2021/08/29 06:55:45;;;;;;;7.95;4.65;;;;;;;;;;5109444;28;20055;-83
2021/08/29 06:58:12;;;;;;;10.00;4.25;;;;;;;;;;5102238;28;20058;-84
2021/08/29 07:00:38;;;;;;;7.13;4.45;;;;;;;;;;5107279;28;20059;-84
2021/08/29 07:03:05;;;;;;;8.20;4.60;;;;;;;;;;5112780;28;20174;-83
2021/08/29 07:05:42;;;;;;;10.48;4.72;;;;;;;;;;5112200;28;20134;-84
2021/08/29 07:08:09;;;;;;;5.80;4.30;;;;;;;;;;5096923;28;20052;-83
2021/08/29 07:10:35;;;;;;;6.07;4.50;;;;;;;;;;5096614;28;20308;-83
2021/08/29 07:13:04;;;;;;;10.23;4.25;;;;;;;;;;5096316;28;20048;-83
2021/08/29 07:15:31;;;;;;;7.88;4.05;;;;;;;;;;5098676;28;20048;-85
2021/08/29 07:17:57;;;;;;;6.47;4.05;;;;;;;;;;5096787;28;20048;-83
2021/08/29 07:20:24;;;;;;;5.82;3.75;;;;;;;;;;5093960;28;20116;-84
2021/08/29 07:22:50;;;;;;;8.38;4.13;;;;;;;;;;5095308;28;20115;-83
2021/08/29 07:25:17;;;;;;;6.43;4.18;;;;;;;;;;5093256;28;20071;-84
2021/08/29 07:27:53;;;;;;;5.63;4.28;;;;;;;;;;5095504;28;20297;-84
2021/08/29 07:30:20;;;;;;;5.38;3.78;;;;;;;;;;5097717;28;20216;-83
2021/08/29 07:32:47;;;;;;;6.68;4.22;;;;;;;;;;5126581;27;20060;-84
2021/08/29 07:35:20;;;;;;;5.47;3.70;;;;;;;;;;5108443;28;20121;-84
2021/08/29 07:37:47;;;;;;;4.55;3.50;;;;;;;;;;5105623;28;20106;-84
2021/08/29 07:40:14;;;;;;;6.03;3.35;;;;;;;;;;5106252;28;20071;-83
2021/08/29 07:42:52;;;;;;;5.43;3.50;;;;;;;;;;5130386;27;20048;-83
2021/08/29 07:45:19;;;;;;;7.50;3.28;;;;;;;;;;5097427;28;20055;-83
2021/08/29 07:47:52;;;;;;;4.55;3.10;;;;;;;;;;5096140;28;20047;-83
2021/08/29 07:50:19;;;;;;;4.30;3.03;;;;;;;;;;5101328;28;20052;-84
2021/08/29 07:52:47;;;;;;;7.25;2.92;;;;;;;;;;5110430;28;20111;-83
2021/08/29 07:55:15;;;;;;;4.95;2.85;;;;;;;;;;5111466;28;20129;-83
2021/08/29 07:57:44;;;;;;;6.80;2.88;;;;;;;;;;5103202;28;20051;-86
2021/08/29 08:00:14;;;;;;;4.20;2.58;;;;;;;;;;5092286;28;20212;-84
2021/08/29 08:02:43;;;;;;;5.57;2.50;;;;;;;;;;5096274;28;20040;-84
2021/08/29 08:05:11;;;;;;;5.75;2.38;;;;;;;;;;5094885;28;20191;-84
2021/08/29 08:07:39;;;;;;;3.20;2.40;;;;;;;;;;5096430;28;20082;-84
2021/08/29 08:10:06;;;;;;;4.30;2.65;;;;;;;;;;5090014;28;20080;-84
2021/08/29 08:12:34;;;;;;;5.53;2.60;;;;;;;;;;5080325;28;20048;-83
2021/08/29 08:15:03;;;;;;;2.85;1.70;;;;;;;;;;5088868;28;20087;-87
2021/08/29 08:17:30;;;;;;;3.63;1.77;;;;;;;;;;5122731;28;20090;-85
2021/08/29 08:19:56;;;;;;;3.85;1.58;;;;;;;;;;5117922;28;20066;-84
2021/08/29 08:22:23;;;;;;;2.88;1.48;;;;;;;;;;5077918;28;20187;-85
2021/08/29 08:24:51;;;;;;;2.05;1.45;;;;;;;;;;5075342;28;20098;-83
2021/08/29 08:27:17;;;;;;;2.38;1.30;;;;;;;;;;5077691;28;20044;-84
2021/08/29 08:29:44;;;;;;;2.58;1.50;;;;;;;;;;5075758;28;20220;-83
2021/08/29 08:32:14;;;;;;;2.88;1.58;;;;;;;;;;5075637;28;20052;-83
2021/08/29 08:34:41;;;;;;;2.67;1.58;;;;;;;;;;5091832;28;20083;-83
2021/08/29 08:37:08;;;;;;;2.40;1.65;;;;;;;;;;5097396;28;20074;-85
2021/08/29 08:39:35;;;;;;;1.98;1.60;;;;;;;;;;5096497;28;20071;-85
2021/08/29 08:42:02;;;;;;;1.80;1.35;;;;;;;;;;5093738;28;20056;-84
2021/08/29 08:44:30;;;;;;;3.22;1.60;;;;;;;;;;5093249;28;20151;-85
2021/08/29 08:46:58;;;;;;;6.07;1.80;;;;;;;;;;5092547;28;20054;-85
2021/08/29 08:49:26;;;;;;;3.03;1.70;;;;;;;;;;5088881;28;20102;-83
2021/08/29 08:51:53;;;;;;;3.17;1.85;;;;;;;;;;5075244;28;20067;-85
2021/08/29 08:54:20;;;;;;;5.38;1.90;;;;;;;;;;5074660;28;20056;-83
2021/08/29 08:56:47;;;;;;;2.83;1.60;;;;;;;;;;5075252;28;20045;-85
2021/08/29 08:59:14;;;;;;;3.38;1.70;;;;;;;;;;5073578;28;20052;-85
2021/08/29 09:01:47;;;;;;;2.97;1.83;;;;;;;;;;5074877;28;20084;-85
2021/08/29 09:04:14;;;;;;;4.00;1.60;;;;;;;;;;5087367;28;20139;-85
2021/08/29 09:06:40;;;;;;;2.15;1.58;;;;;;;;;;5094286;28;20415;-85
2021/08/29 09:09:07;;;;;;;6.22;1.60;;;;;;;;;;5093068;28;20117;-84
2021/08/29 09:11:40;;;;;;;3.53;1.55;;;;;;;;;;5093750;28;20052;-83
2021/08/29 09:14:08;;;;;;;1.30;1.20;;;;;;;;;;5093689;28;20048;-84
2021/08/29 09:16:34;;;;;;;2.20;1.25;;;;;;;;;;5093015;28;20047;-84
2021/08/29 09:19:03;;;;;;;2.15;1.13;;;;;;;;;;5094124;28;20044;-84
2021/08/29 09:21:31;;;;;;;1.50;1.30;;;;;;;;;;5090600;28;20355;-85
2021/08/29 09:23:58;;;;;;;1.00;0.90;;;;;;;;;;5091940;28;20090;-84
2021/08/29 09:26:31;;;;;;;2.80;1.10;;;;;;;;;;5101666;28;20159;-84
2021/08/29 09:28:58;;;;;;;2.08;1.20;;;;;;;;;;5107994;28;20059;-84
2021/08/29 09:31:41;;;;;;;3.67;0.90;;;;;;;;;;5106828;28;20048;-84
2021/08/29 09:34:08;;;;;;;1.13;0.75;;;;;;;;;;5105655;28;20062;-84
2021/08/29 09:36:35;;;;;;;1.13;0.80;;;;;;;;;;5100376;28;20070;-83
2021/08/29 09:39:12;;;;;;;2.22;0.88;;;;;;;;;;5084883;28;20131;-84
2021/08/29 09:41:39;;;;;;;1.88;1.05;;;;;;;;;;5072207;28;20339;-84
2021/08/29 09:44:08;;;;;;;3.90;0.95;;;;;;;;;;5077441;28;20109;-84
2021/08/29 09:46:47;;;;;;;1.27;0.90;;;;;;;;;;5074647;28;20405;-83
2021/08/29 09:49:27;;;;;;;1.17;0.90;;;;;;;;;;5073617;28;20053;-84
2021/08/29 09:51:57;;;;;;;1.77;1.02;;;;;;;;;;5091798;28;20056;-83
2021/08/29 09:54:32;;;;;;;2.08;0.95;;;;;;;;;;5092018;28;20048;-84
2021/08/29 09:56:59;;;;;;;1.20;0.95;;;;;;;;;;5090192;28;20078;-83
2021/08/29 09:59:38;;;;;;;1.45;1.00;;;;;;;;;;5091960;28;20047;-83
2021/08/29 10:02:04;;;;;;;1.38;1.13;;;;;;;;;;5093555;28;20450;-83
2021/08/29 10:04:39;;;;;;;1.20;0.95;;;;;;;;;;5095014;28;20131;-82
2021/08/29 10:07:12;;;;;;;2.83;1.40;;;;;;;;;;5093683;28;20139;-84
2021/08/29 10:09:39;;;;;;;1.00;0.90;;;;;;;;;;5109896;28;20191;-84
2021/08/29 10:12:10;;;;;;;2.80;1.25;;;;;;;;;;5109403;28;20052;-83
2021/08/29 10:14:37;;;;;;;1.70;1.02;;;;;;;;;;5104047;28;20091;-84
2021/08/29 10:17:03;;;;;;;1.52;0.93;;;;;;;;;;5095205;28;20174;-84
2021/08/29 10:19:30;;;;;;;1.58;1.17;;;;;;;;;;5080948;28;20180;-85
2021/08/29 10:21:57;;;;;;;1.70;1.20;;;;;;;;;;5122516;28;20102;-84
2021/08/29 10:24:27;;;;;;;1.98;1.20;;;;;;;;;;5081151;28;20045;-85
2021/08/29 10:26:54;;;;;;;1.45;1.13;;;;;;;;;;5077911;28;20071;-84
2021/08/29 10:29:28;;;;;;;3.35;1.50;;;;;;;;;;5096878;28;20056;-85
2021/08/29 10:32:04;;;;;;;1.67;1.52;;;;;;;;;;5096288;28;20416;-85
2021/08/29 10:34:33;;;;;;;6.60;2.28;;;;;;;;;;5076914;28;20225;-84
2021/08/29 10:37:04;;;;;;;2.85;1.90;;;;;;;;;;5093459;28;20086;-85
2021/08/29 10:39:30;;;;;;;2.45;1.63;;;;;;;;;;5096004;28;20083;-84
2021/08/29 10:41:58;;;;;;;1.83;1.55;;;;;;;;;;5095018;28;20436;-85
2021/08/29 10:44:25;;;;;;;8.63;1.80;;;;;;;;;;5095506;28;20151;-83
2021/08/29 10:46:53;;;;;;;2.10;1.80;;;;;;;;;;5129404;27;20078;-86
2021/08/29 10:49:20;;;;;;;2.05;1.70;;;;;;;;;;5127429;27;20063;-84
2021/08/29 10:51:46;;;;;;;2.22;2.00;;;;;;;;;;5102967;28;20047;-84
2021/08/29 10:54:14;;;;;;;1.95;1.67;;;;;;;;;;5099753;28;20041;-85
2021/08/29 10:56:41;;;;;;;2.08;1.60;;;;;;;;;;5078105;28;20140;-85
2021/08/29 10:59:08;;;;;;;2.42;1.80;;;;;;;;;;5079812;28;20224;-85
2021/08/29 11:01:45;;;;;;;1.58;1.45;;;;;;;;;;5089493;28;20130;-85
2021/08/29 11:04:35;;;;;;;1.92;1.60;;;;;;;;;;5105714;28;20048;-86
2021/08/29 11:07:23;;;;;;;1.63;1.30;;;;;;;;;;5101012;28;20117;-85
2021/08/29 11:09:53;;;;;;;2.60;1.90;;;;;;;;;;5094756;28;20231;-86
2021/08/29 11:12:22;;;;;;;1.63;1.52;;;;;;;;;;5102037;28;20052;-85
2021/08/29 11:14:51;;;;;;;6.15;2.25;;;;;;;;;;5099640;28;20138;-85
2021/08/29 11:17:23;;;;;;;2.95;1.85;;;;;;;;;;5079556;28;20048;-85
2021/08/29 11:19:50;;;;;;;2.75;2.30;;;;;;;;;;5078105;28;20105;-85
2021/08/29 11:22:18;;;;;;;2.85;2.13;;;;;;;;;;5077133;28;20143;-85
2021/08/29 11:24:48;;;;;;;3.22;2.30;;;;;;;;;;5076570;28;20114;-84
2021/08/29 11:27:33;;;;;;;2.13;1.85;;;;;;;;;;5078648;28;20076;-84
2021/08/29 11:30:00;;;;;;;3.33;2.45;;;;;;;;;;5076322;28;20044;-85
2021/08/29 11:32:44;;;;;;;3.40;2.60;;;;;;;;;;5076769;28;20048;-85
2021/08/29 11:35:14;;;;;;;3.10;2.80;;;;;;;;;;5084784;28;20281;-84
2021/08/29 11:38:04;;;;;;;3.22;2.80;;;;;;;;;;5096644;28;20048;-84
2021/08/29 11:40:53;;;;;;;3.15;2.30;;;;;;;;;;5079214;28;20290;-85
2021/08/29 11:43:21;;;;;;;3.28;2.28;;;;;;;;;;5075686;28;20055;-84
2021/08/29 11:45:58;;;;;;;3.08;2.55;;;;;;;;;;5076810;28;20045;-83
2021/08/29 11:48:32;;;;;;;2.60;2.40;;;;;;;;;;5073888;28;20105;-83
2021/08/29 11:50:59;;;;;;;3.13;2.63;;;;;;;;;;5073419;28;20056;-83
2021/08/29 11:53:26;;;;;;;2.88;2.45;;;;;;;;;;5081089;28;20052;-84
2021/08/29 11:56:06;;;;;;;2.95;2.33;;;;;;;;;;5074653;28;20054;-84
2021/08/29 11:58:32;;;;;;;3.88;2.75;;;;;;;;;;5074218;28;20083;-83
2021/08/29 12:01:05;;;;;;;3.63;2.65;;;;;;;;;;5072850;28;20193;-83
2021/08/29 12:03:42;;;;;;;3.55;2.13;;;;;;;;;;5077379;28;20048;-84
2021/08/29 12:06:13;;;;;;;3.55;2.72;;;;;;;;;;5081052;28;20071;-84
2021/08/29 12:09:05;;;;;;;3.83;2.63;;;;;;;;;;5113695;28;20116;-84
2021/08/29 12:11:34;;;;;;;3.63;3.20;;;;;;;;;;5094076;28;20063;-84
2021/08/29 12:14:15;;;;;;;8.57;6.68;;;;;;;;;;5107707;28;20143;-84
2021/08/29 12:16:58;;;;;;;8.15;6.30;;;;;;;;;;5096217;28;20074;-84
2021/08/29 12:19:35;;;;;;;4.63;3.50;;;;;;;;;;5097146;28;20048;-85
2021/08/29 12:22:04;;;;;;;3.88;3.00;;;;;;;;;;5098817;28;20382;-85
2021/08/29 12:24:32;;;;;;;4.80;3.42;;;;;;;;;;5095196;28;20044;-84
2021/08/29 12:27:00;;;;;;;5.05;3.22;;;;;;;;;;5093556;28;20442;-83
2021/08/29 12:29:26;;;;;;;4.65;4.22;;;;;;;;;;5090717;28;20098;-83
2021/08/29 12:31:53;;;;;;;3.55;3.00;;;;;;;;;;5089132;28;20071;-81
2021/08/29 12:34:26;;;;;;;3.38;2.92;;;;;;;;;;5098089;28;20047;-83
2021/08/29 12:37:11;;;;;;;3.78;3.22;;;;;;;;;;5084458;28;20220;-84
2021/08/29 12:39:40;;;;;;;4.15;2.83;;;;;;;;;;5105945;28;20036;-83
2021/08/29 12:42:20;;;;;;;4.38;3.97;;;;;;;;;;5107970;28;20105;-84
2021/08/29 12:44:47;;;;;;;4.68;3.35;;;;;;;;;;5104734;28;20051;-84
2021/08/29 12:47:13;;;;;;;13.05;3.70;;;;;;;;;;5093387;28;20052;-84
2021/08/29 12:49:40;;;;;;;4.38;3.90;;;;;;;;;;5093017;28;20044;-84
2021/08/29 12:52:11;;;;;;;4.93;4.00;;;;;;;;;;5092325;28;20078;-84
2021/08/29 12:54:39;;;;;;;8.80;3.78;;;;;;;;;;5093979;28;20196;-84
2021/08/29 12:57:06;;;;;;;4.88;4.03;;;;;;;;;;5092222;28;20113;-84
2021/08/29 12:59:33;;;;;;;5.28;4.00;;;;;;;;;;5072961;28;20471;-84
2021/08/29 13:01:59;;;;;;;7.00;4.70;;;;;;;;;;5085268;28;20071;-84
2021/08/29 13:04:27;;;;;;;5.90;4.30;;;;;;;;;;5092942;28;20066;-84
2021/08/29 13:07:01;;;;;;;7.07;4.78;;;;;;;;;;5091550;28;20074;-84
2021/08/29 13:09:27;;;;;;;7.68;4.55;;;;;;;;;;5091965;28;20433;-84
2021/08/29 13:11:54;;;;;;;10.98;5.50;;;;;;;;;;5093245;28;20146;-83
2021/08/29 13:14:42;;;;;;;6.88;5.15;;;;;;;;;;5092307;28;20055;-83
2021/08/29 13:17:15;;;;;;;13.85;7.05;;;;;;;;;;5093536;28;20337;-83
2021/08/29 13:19:42;;;;;;;17.33;8.77;;;;;;;;;;5093969;28;20079;-83
2021/08/29 13:22:08;;;;;;;17.05;7.35;;;;;;;;;;5084990;28;20135;-83
2021/08/29 13:24:37;;;;;;;7.88;5.30;;;;;;;;;;5085685;28;20048;-83
2021/08/29 13:27:15;;;;;;;10.32;5.50;;;;;;;;;;5089335;28;20132;-84
2021/08/29 13:29:42;;;;;;;16.30;7.28;;;;;;;;;;5099445;28;20128;-83
2021/08/29 13:32:09;;;;;;;8.93;5.13;;;;;;;;;;5100005;28;20048;-84
2021/08/29 13:34:35;;;;;;;7.47;3.83;;;;;;;;;;5111390;28;20121;-83
2021/08/29 13:37:03;;;;;;;7.63;4.00;;;;;;;;;;5097296;28;20052;-84
2021/08/29 13:39:29;;;;;;;6.25;4.00;;;;;;;;;;5083950;28;20052;-84
2021/08/29 13:42:14;;;;;;;5.78;3.50;;;;;;;;;;5076906;28;20076;-85
2021/08/29 13:44:43;;;;;;;8.45;3.97;;;;;;;;;;5075277;28;20202;-84
2021/08/29 13:47:10;;;;;;;5.20;3.67;;;;;;;;;;5093654;28;20056;-84
2021/08/29 13:49:37;;;;;;;7.65;4.18;;;;;;;;;;5088176;28;20049;-83
2021/08/29 13:52:05;;;;;;;5.53;3.88;;;;;;;;;;5091067;28;20068;-83
2021/08/29 13:54:31;;;;;;;5.38;3.90;;;;;;;;;;5093109;28;20110;-83
2021/08/29 13:56:57;;;;;;;5.28;3.70;;;;;;;;;;5126653;27;20147;-84
2021/08/29 13:59:24;;;;;;;7.72;3.70;;;;;;;;;;5094646;28;20251;-84
2021/08/29 14:01:50;;;;;;;4.55;3.65;;;;;;;;;;5084834;28;20087;-84
2021/08/29 14:04:17;;;;;;;7.05;3.55;;;;;;;;;;5093879;28;20040;-84
2021/08/29 14:06:44;;;;;;;7.20;4.40;;;;;;;;;;5094020;28;20100;-82
2021/08/29 14:09:10;;;;;;;6.30;4.03;;;;;;;;;;5094266;28;20127;-81
2021/08/29 14:11:40;;;;;;;5.95;4.55;;;;;;;;;;5097229;28;20066;-82
2021/08/29 14:14:18;;;;;;;6.75;4.47;;;;;;;;;;5097976;28;20040;-83
2021/08/29 14:16:46;;;;;;;7.55;4.40;;;;;;;;;;5107885;28;20047;-80
2021/08/29 14:19:12;;;;;;;6.70;4.32;;;;;;;;;;5107762;28;20058;-81
2021/08/29 14:21:38;;;;;;;7.75;4.68;;;;;;;;;;5104207;28;20052;-81
2021/08/29 14:24:05;;;;;;;7.40;4.38;;;;;;;;;;5098382;28;20052;-81
2021/08/29 14:26:32;;;;;;;7.47;4.65;;;;;;;;;;5105133;28;20164;-80
2021/08/29 14:29:00;;;;;;;9.30;5.05;;;;;;;;;;5089377;28;20049;-81
2021/08/29 14:31:26;;;;;;;8.95;4.60;;;;;;;;;;5074573;28;20059;-81
2021/08/29 14:34:12;;;;;;;4.57;3.83;;;;;;;;;;5076158;28;20265;-82
2021/08/29 14:36:39;;;;;;;5.85;4.22;;;;;;;;;;5078269;28;20048;-82
2021/08/29 14:39:05;;;;;;;5.28;3.80;;;;;;;;;;5075202;28;20048;-82
2021/08/29 14:41:32;;;;;;;5.78;3.90;;;;;;;;;;5075900;28;20052;-82
2021/08/29 14:44:01;;;;;;;5.93;3.95;;;;;;;;;;5076194;28;20126;-82
2021/08/29 14:46:27;;;;;;;5.22;4.68;;;;;;;;;;5074111;28;20444;-82
2021/08/29 14:49:03;;;;;;;5.13;3.90;;;;;;;;;;5072960;28;20502;-82
2021/08/29 14:51:29;;;;;;;5.28;3.90;;;;;;;;;;5085219;28;20064;-82